Vught, Netherlands
Current Conditions -  °F | °C
As of 10:25 AM on Friday 24 Oct 2014 (Local Time) from EHEH Reporting Station
Light Rain Light Rain  
Wind Chill: 52°   Ceiling: 4100
Heat Index: 52°   Visibility: 6mi
Dew Point: 46°   Wind: 8mph
Humidity: 82%   Direction: 180°S
Pressure: 30.09"   Gusts: NA
Location:  51.65°N, 5.29°E
Report Text: EHEH 240825Z AUTO 18007KT 9999 -RA OVC041 11/08 Q1019 RERA REDZBLU 18008KT 9999 -RADZ SCT032 OVC040
Loading
Personal Weather Stations






























Interactive Weather Map
Tropical Storm Tracking
New forecast layout! Learn more

10-Day Weather Forecast

Advertisements
Track Severe Weather on mobile